S 386 Casilo — OZZP — position and weather

sailwx.info

Track history (hours):
 
Tides and Currents Weather Stations Pressure Air Temp Water Temp Dewpoint Dewpoint Depression Visibility Wind Speed Wind Dir Waves Ship Positions

S 386 Casilo

Last reported at 2016-May-26 23:33 UTC. Time now 2016-May-30 08:51 UTC.
Position N 57°47' E 009°46'.

Length 24 m.

Type: Fishing. MMSI: 219948000.

Date/timePositionNaut miles runAvg speedWind from/ knotsBaromVisibWave heightAir tempDewpointWater temp
2016-May-26 23:33N 57°47' E 009°46'9 9.3
2016-May-26 22:34N 57°47' E 010°03'9 9.4
2016-May-26 21:34N 57°47' E 010°20'9 9.5
2016-May-26 20:34N 57°46' E 010°38'3 3.1
2016-May-26 19:34N 57°43' E 010°36'0 0.0
2016-May-26 18:34N 57°43' E 010°36'0 0.0
2016-May-26 17:33N 57°43' E 010°36'0 0.0
2016-May-26 16:33N 57°43' E 010°36'0 0.0
2016-May-26 15:34N 57°43' E 010°36'0 0.0
2016-May-26 14:33N 57°43' E 010°36'0 0.0
2016-May-26 13:34N 57°43' E 010°36'0 0.0
2016-May-26 12:33N 57°43' E 010°36'0 0.0
2016-May-26 11:13N 57°43' E 010°36'0 0.0
2016-May-26 10:34N 57°43' E 010°36'0 0.0
2016-May-26 09:32N 57°43' E 010°36'0 0.0
2016-May-26 08:32N 57°43' E 010°36'0 0.0
2016-May-26 07:30N 57°43' E 010°36'0 0.1
2016-May-26 06:33N 57°43' E 010°36'0 0.0
2016-May-26 05:33N 57°43' E 010°36'2 1.9
2016-May-26 04:34N 57°44' E 010°39'7 6.9
2016-May-26 03:34N 57°50' E 010°45'7 6.8
2016-May-26 02:34N 57°57' E 010°47'5 4.6
2016-May-26 01:33N 58°01' E 010°48'1 1.3
2016-May-26 00:34N 58°01' E 010°45'2 2.1
2016-May-25 23:34N 58°02' E 010°42'2 2.0
2016-May-25 22:34N 58°03' E 010°39'2 1.9
2016-May-25 21:34N 58°05' E 010°37'2 1.9
2016-May-25 20:34N 58°06' E 010°35'2 1.9
2016-May-25 19:34N 58°08' E 010°32'2 1.9
2016-May-25 18:34N 58°09' E 010°29'2 2.1
2016-May-25 17:29N 58°09' E 010°25'2 2.1
2016-May-25 16:32N 58°09' E 010°21'7 1.0
2016-May-25 09:11N 58°08' E 010°07'6 8.5
2016-May-25 08:30N 58°08' E 010°18'8 8.6
2016-May-25 07:34N 58°06' E 010°33'8 8.4
2016-May-25 06:34N 58°02' E 010°47'2 1.7
2016-May-25 05:34N 58°01' E 010°50'2 1.8
2016-May-25 04:34N 58°01' E 010°46'2 2.0
2016-May-25 03:34N 58°02' E 010°43'2 2.0
2016-May-25 02:34N 58°04' E 010°41'2 2.1
2016-May-25 01:33N 58°06' E 010°39'2 2.1
2016-May-25 00:34N 58°07' E 010°36'2 2.1
2016-May-24 23:34N 58°08' E 010°33'2 2.0
2016-May-24 22:33N 58°09' E 010°29'8 1.9
2016-May-24 18:15N 58°09' E 010°13'1 1.2
2016-May-24 17:33N 58°10' E 010°12'7 6.7
2016-May-24 16:33N 58°16' E 010°16'9 9.0
2016-May-24 15:34N 58°24' E 010°22'7 6.5
2016-May-24 14:34N 58°30' E 010°28'2 1.6
2016-May-24 13:34N 58°29' E 010°30'5 4.8
2016-May-24 12:33N 58°34' E 010°27'2 2.3
2016-May-24 11:34N 58°35' E 010°30'2 1.6
2016-May-24 10:34N 58°34' E 010°32'2 2.0
2016-May-24 09:34N 58°32' E 010°34'2 1.9
2016-May-24 08:34N 58°31' E 010°37'2 2.0
2016-May-24 07:33N 58°29' E 010°39'2 1.8
2016-May-24 06:33N 58°27' E 010°40'2 1.8
2016-May-24 05:34N 58°25' E 010°40'2 1.8
2016-May-24 04:34N 58°24' E 010°40'2 1.9
2016-May-24 03:34N 58°22' E 010°40'2 2.0
2016-May-24 02:34N 58°20' E 010°40'2 2.0
2016-May-24 01:33N 58°18' E 010°41'2 2.1
2016-May-24 00:34N 58°16' E 010°41'2 2.4
2016-May-23 23:33N 58°13' E 010°42'8 8.1
2016-May-23 22:33N 58°05' E 010°44'10 9.6
2016-May-23 21:34N 57°56' E 010°43'10 9.6
2016-May-23 20:33N 57°46' E 010°42'4 4.5
2016-May-23 19:33N 57°43' E 010°36'0 0.0
2016-May-23 18:34N 57°43' E 010°36'0 0.0
2016-May-23 17:32N 57°43' E 010°36'0 0.0
2016-May-23 15:29N 57°43' E 010°36'0 0.0
2016-May-23 13:31N 57°43' E 010°36'0 0.0
2016-May-23 10:33N 57°43' E 010°36'2 0.6
2016-May-23 07:29N 57°43' E 010°39'8 8.2
2016-May-23 06:31N 57°49' E 010°48'8 8.1
2016-May-23 05:34N 57°57' E 010°54'8 8.4
2016-May-23 04:34N 58°04' E 010°60'8 8.3
2016-May-23 03:34N 58°12' E 011°06'7 7.4
2016-May-23 02:34N 58°19' E 011°13'3 2.6
2016-May-23 01:34N 58°21' E 011°14'5 5.0
2016-May-23 00:34N 58°17' E 011°08'9 9.2
2016-May-22 23:34N 58°11' E 010°55'7 7.3
2016-May-22 22:34N 58°05' E 010°47'1 1.2
2016-May-22 21:34N 58°06' E 010°44'2 2.0
2016-May-22 20:34N 58°07' E 010°41'2 2.0
2016-May-22 19:34N 58°08' E 010°39'2 2.0
2016-May-22 18:34N 58°09' E 010°36'2 2.0
2016-May-22 17:34N 58°10' E 010°33'2 2.0
2016-May-22 16:33N 58°11' E 010°29'2 2.1
2016-May-22 15:34N 58°11' E 010°25'2 2.1
2016-May-22 14:34N 58°12' E 010°21'2 2.1
2016-May-22 13:34N 58°11' E 010°17'2 2.1
2016-May-22 12:26N 58°11' E 010°12'2 2.3
2016-May-22 11:24N 58°10' E 010°08'1 1.2
2016-May-22 10:33N 58°09' E 010°07'1 1.2
2016-May-22 09:33N 58°08' E 010°09'2 1.8
2016-May-22 08:30N 58°09' E 010°12'2 1.8
2016-May-22 07:29N 58°09' E 010°16'2 1.8
2016-May-22 06:34N 58°09' E 010°19'2 1.8
2016-May-22 05:34N 58°09' E 010°22'2 1.8
2016-May-22 04:34N 58°09' E 010°26'2 1.9
2016-May-22 03:33N 58°08' E 010°29'2 1.9
2016-May-22 02:34N 58°07' E 010°32'2 1.9
2016-May-22 01:33N 58°06' E 010°35'2 1.8
2016-May-22 00:34N 58°04' E 010°37'2 1.9
2016-May-21 23:34N 58°03' E 010°39'2 2.0
2016-May-21 22:34N 58°02' E 010°42'5 4.6
2016-May-21 21:34N 58°02' E 010°50'0 0.3
2016-May-21 20:34N 58°02' E 010°51'2 2.2
2016-May-21 19:34N 58°01' E 010°48'2 2.0
2016-May-21 18:34N 58°02' E 010°44'2 1.9
2016-May-21 17:34N 58°04' E 010°42'2 1.9
2016-May-21 16:34N 58°05' E 010°41'2 2.0
2016-May-21 15:34N 58°07' E 010°39'2 2.0
2016-May-21 14:33N 58°08' E 010°35'2 2.1
2016-May-21 13:34N 58°09' E 010°32'2 2.2
2016-May-21 12:33N 58°10' E 010°28'2 2.2
2016-May-21 11:32N 58°10' E 010°24'3 3.0
2016-May-21 10:34N 58°11' E 010°19'9 9.1
2016-May-21 09:33N 58°20' E 010°14'18 8.9
2016-May-21 07:34N 58°37' E 010°07'9 8.9
2016-May-21 06:33N 58°46' E 010°04'1 1.1
2016-May-21 05:34N 58°47' E 010°04'2 1.9
2016-May-21 04:34N 58°49' E 010°05'2 2.0
2016-May-21 03:33N 58°49' E 010°09'2 2.2
2016-May-21 02:34N 58°47' E 010°12'2 2.2
2016-May-21 01:33N 58°46' E 010°14'2 2.1
2016-May-21 00:34N 58°44' E 010°16'2 2.0
2016-May-20 23:34N 58°42' E 010°18'2 2.0
2016-May-20 22:33N 58°40' E 010°20'2 2.0
2016-May-20 21:34N 58°38' E 010°22'2 2.0
2016-May-20 20:34N 58°37' E 010°24'2 2.0
2016-May-20 19:34N 58°35' E 010°26'2 2.2
2016-May-20 18:34N 58°33' E 010°28'1 1.3
2016-May-20 17:33N 58°32' E 010°29'6 6.3
2016-May-20 16:33N 58°38' E 010°28'1 1.5
2016-May-20 15:34N 58°37' E 010°28'2 2.1
2016-May-20 14:34N 58°35' E 010°30'2 2.1
2016-May-20 13:34N 58°34' E 010°33'2 2.1
2016-May-20 12:34N 58°32' E 010°36'2 2.1
2016-May-20 11:34N 58°30' E 010°38'2 2.0
2016-May-20 10:34N 58°29' E 010°40'2 2.0
2016-May-20 09:34N 58°27' E 010°41'2 2.1
2016-May-20 08:34N 58°25' E 010°42'2 2.1
2016-May-20 07:34N 58°23' E 010°42'2 2.2
2016-May-20 06:33N 58°20' E 010°43'5 5.1
2016-May-20 05:34N 58°15' E 010°42'9 8.8
2016-May-20 04:34N 58°07' E 010°37'1 1.4
2016-May-20 03:33N 58°07' E 010°35'2 2.3
2016-May-20 02:34N 58°09' E 010°31'2 2.3
2016-May-20 01:34N 58°10' E 010°27'2 2.3
2016-May-20 00:33N 58°10' E 010°23'2 2.3
2016-May-19 23:34N 58°10' E 010°18'3 2.3
2016-May-19 22:23N 58°09' E 010°13'2 2.3
2016-May-19 21:26N 58°09' E 010°09'7 2.3
2016-May-19 18:23N 58°02' E 010°10'7 9.0
2016-May-19 17:34N 57°57' E 010°21'9 9.0
2016-May-19 16:33N 57°51' E 010°33'8 7.5
2016-May-19 15:31N 57°44' E 010°40'2 2.4
2016-May-19 14:33N 57°43' E 010°36'0 0.0
2016-May-19 13:28N 57°43' E 010°36'0 0.0
2016-May-19 06:33N 57°43' E 010°36'8 7.7
2016-May-19 05:32N 57°49' E 010°46'9 9.2
2016-May-19 04:34N 57°57' E 010°53'9 8.7
2016-May-19 03:34N 58°04' E 010°60'9 8.6
2016-May-19 02:34N 58°12' E 011°07'9 8.7
2016-May-19 01:34N 58°20' E 011°14'1 1.0
2016-May-19 00:34N 58°21' E 011°14'4 3.6
2016-May-18 23:34N 58°23' E 011°07'9 9.0
2016-May-18 22:34N 58°28' E 010°54'9 8.6
2016-May-18 21:34N 58°34' E 010°42'8 8.4
2016-May-18 20:34N 58°40' E 010°31'4 4.2
2016-May-18 19:33N 58°43' E 010°25'1 1.0
2016-May-18 18:34N 58°44' E 010°25'1 1.3
2016-May-18 17:34N 58°45' E 010°24'1 1.3
2016-May-18 16:34N 58°46' E 010°22'1 1.3
2016-May-18 15:33N 58°47' E 010°20'1 1.4
2016-May-18 14:33N 58°47' E 010°18'2 1.6
2016-May-18 13:33N 58°46' E 010°17'2 2.0
2016-May-18 12:33N 58°44' E 010°19'2 2.1
2016-May-18 11:34N 58°42' E 010°21'2 2.1
2016-May-18 10:34N 58°41' E 010°23'2 2.0
2016-May-18 09:33N 58°39' E 010°25'2 2.0
2016-May-18 08:34N 58°37' E 010°26'2 2.1
2016-May-18 07:34N 58°35' E 010°28'2 2.1
2016-May-18 06:34N 58°33' E 010°29'2 2.5
2016-May-18 05:33N 58°31' E 010°32'7 7.3
2016-May-18 04:32N 58°37' E 010°25'8 8.3
2016-May-18 03:34N 58°45' E 010°19'6 6.1
2016-May-18 02:34N 58°51' E 010°15'2 1.5
2016-May-18 01:34N 58°50' E 010°17'2 2.0
2016-May-18 00:34N 58°48' E 010°20'2 2.0
2016-May-17 23:34N 58°47' E 010°22'2 2.0
2016-May-17 22:34N 58°45' E 010°25'2 2.0
2016-May-17 21:34N 58°43' E 010°26'2 2.1
2016-May-17 20:33N 58°41' E 010°28'2 2.0
2016-May-17 19:34N 58°40' E 010°29'2 2.0
2016-May-17 18:34N 58°38' E 010°30'2 1.9
2016-May-17 17:33N 58°36' E 010°31'2 1.9
2016-May-17 16:34N 58°34' E 010°33'2 2.0
2016-May-17 15:34N 58°32' E 010°35'2 2.0
2016-May-17 14:34N 58°31' E 010°38'2 2.0
2016-May-17 13:33N 58°29' E 010°39'4 4.2
2016-May-17 12:34N 58°32' E 010°34'1 1.2
2016-May-17 11:34N 58°33' E 010°33'2 1.6
2016-May-17 10:33N 58°35' E 010°31'2 1.6
2016-May-17 09:34N 58°36' E 010°30'2 1.6
2016-May-17 08:34N 58°38' E 010°30'2 1.6
2016-May-17 07:34N 58°39' E 010°29'2 1.6
2016-May-17 06:34N 58°41' E 010°28'2 1.6
2016-May-17 05:34N 58°42' E 010°27'2 1.6
2016-May-17 04:33N 58°44' E 010°26'2 1.6
2016-May-17 03:34N 58°45' E 010°24'2 1.7
2016-May-17 02:34N 58°46' E 010°22'2 1.6
2016-May-17 01:34N 58°48' E 010°20'2 1.6
2016-May-17 00:34N 58°49' E 010°18'2 1.6
2016-May-16 23:34N 58°50' E 010°16'  
Track history (hours):
 
Tides and Currents Weather Stations Pressure Air Temp Water Temp Dewpoint Dewpoint Depression Visibility Wind Speed Wind Dir Waves Ship Positions

S 386 Casilo

Last reported at 2016-May-26 23:33 UTC. Time now 2016-May-30 08:51 UTC.
Position N 57°47' E 009°46'.

Length 24 m.

Type: Fishing. MMSI: 219948000.

Date/timePositionNaut miles runAvg speedWind from/ knotsBaromVisibWave heightAir tempDewpointWater temp
2016-May-26 23:33N 57°47' E 009°46'9 9.3
2016-May-26 22:34N 57°47' E 010°03'9 9.4
2016-May-26 21:34N 57°47' E 010°20'9 9.5
2016-May-26 20:34N 57°46' E 010°38'3 3.1
2016-May-26 19:34N 57°43' E 010°36'0 0.0
2016-May-26 18:34N 57°43' E 010°36'0 0.0
2016-May-26 17:33N 57°43' E 010°36'0 0.0
2016-May-26 16:33N 57°43' E 010°36'0 0.0
2016-May-26 15:34N 57°43' E 010°36'0 0.0
2016-May-26 14:33N 57°43' E 010°36'0 0.0
2016-May-26 13:34N 57°43' E 010°36'0 0.0
2016-May-26 12:33N 57°43' E 010°36'0 0.0
2016-May-26 11:13N 57°43' E 010°36'0 0.0
2016-May-26 10:34N 57°43' E 010°36'0 0.0
2016-May-26 09:32N 57°43' E 010°36'0 0.0
2016-May-26 08:32N 57°43' E 010°36'0 0.0
2016-May-26 07:30N 57°43' E 010°36'0 0.1
2016-May-26 06:33N 57°43' E 010°36'0 0.0
2016-May-26 05:33N 57°43' E 010°36'2 1.9
2016-May-26 04:34N 57°44' E 010°39'7 6.9
2016-May-26 03:34N 57°50' E 010°45'7 6.8
2016-May-26 02:34N 57°57' E 010°47'5 4.6
2016-May-26 01:33N 58°01' E 010°48'1 1.3
2016-May-26 00:34N 58°01' E 010°45'2 2.1
2016-May-25 23:34N 58°02' E 010°42'2 2.0
2016-May-25 22:34N 58°03' E 010°39'2 1.9
2016-May-25 21:34N 58°05' E 010°37'2 1.9
2016-May-25 20:34N 58°06' E 010°35'2 1.9
2016-May-25 19:34N 58°08' E 010°32'2 1.9
2016-May-25 18:34N 58°09' E 010°29'2 2.1
2016-May-25 17:29N 58°09' E 010°25'2 2.1
2016-May-25 16:32N 58°09' E 010°21'7 1.0
2016-May-25 09:11N 58°08' E 010°07'6 8.5
2016-May-25 08:30N 58°08' E 010°18'8 8.6
2016-May-25 07:34N 58°06' E 010°33'8 8.4
2016-May-25 06:34N 58°02' E 010°47'2 1.7
2016-May-25 05:34N 58°01' E 010°50'2 1.8
2016-May-25 04:34N 58°01' E 010°46'2 2.0
2016-May-25 03:34N 58°02' E 010°43'2 2.0
2016-May-25 02:34N 58°04' E 010°41'2 2.1
2016-May-25 01:33N 58°06' E 010°39'2 2.1
2016-May-25 00:34N 58°07' E 010°36'2 2.1
2016-May-24 23:34N 58°08' E 010°33'2 2.0
2016-May-24 22:33N 58°09' E 010°29'8 1.9
2016-May-24 18:15N 58°09' E 010°13'1 1.2
2016-May-24 17:33N 58°10' E 010°12'7 6.7
2016-May-24 16:33N 58°16' E 010°16'9 9.0
2016-May-24 15:34N 58°24' E 010°22'7 6.5
2016-May-24 14:34N 58°30' E 010°28'2 1.6
2016-May-24 13:34N 58°29' E 010°30'5 4.8
2016-May-24 12:33N 58°34' E 010°27'2 2.3
2016-May-24 11:34N 58°35' E 010°30'2 1.6
2016-May-24 10:34N 58°34' E 010°32'2 2.0
2016-May-24 09:34N 58°32' E 010°34'2 1.9
2016-May-24 08:34N 58°31' E 010°37'2 2.0
2016-May-24 07:33N 58°29' E 010°39'2 1.8
2016-May-24 06:33N 58°27' E 010°40'2 1.8
2016-May-24 05:34N 58°25' E 010°40'2 1.8
2016-May-24 04:34N 58°24' E 010°40'2 1.9
2016-May-24 03:34N 58°22' E 010°40'2 2.0
2016-May-24 02:34N 58°20' E 010°40'2 2.0
2016-May-24 01:33N 58°18' E 010°41'2 2.1
2016-May-24 00:34N 58°16' E 010°41'2 2.4
2016-May-23 23:33N 58°13' E 010°42'8 8.1
2016-May-23 22:33N 58°05' E 010°44'10 9.6
2016-May-23 21:34N 57°56' E 010°43'10 9.6
2016-May-23 20:33N 57°46' E 010°42'4 4.5
2016-May-23 19:33N 57°43' E 010°36'0 0.0
2016-May-23 18:34N 57°43' E 010°36'0 0.0
2016-May-23 17:32N 57°43' E 010°36'0 0.0
2016-May-23 15:29N 57°43' E 010°36'0 0.0
2016-May-23 13:31N 57°43' E 010°36'0 0.0
2016-May-23 10:33N 57°43' E 010°36'2 0.6
2016-May-23 07:29N 57°43' E 010°39'8 8.2
2016-May-23 06:31N 57°49' E 010°48'8 8.1
2016-May-23 05:34N 57°57' E 010°54'8 8.4
2016-May-23 04:34N 58°04' E 010°60'8 8.3
2016-May-23 03:34N 58°12' E 011°06'7 7.4
2016-May-23 02:34N 58°19' E 011°13'3 2.6
2016-May-23 01:34N 58°21' E 011°14'5 5.0
2016-May-23 00:34N 58°17' E 011°08'9 9.2
2016-May-22 23:34N 58°11' E 010°55'7 7.3
2016-May-22 22:34N 58°05' E 010°47'1 1.2
2016-May-22 21:34N 58°06' E 010°44'2 2.0
2016-May-22 20:34N 58°07' E 010°41'2 2.0
2016-May-22 19:34N 58°08' E 010°39'2 2.0
2016-May-22 18:34N 58°09' E 010°36'2 2.0
2016-May-22 17:34N 58°10' E 010°33'2 2.0
2016-May-22 16:33N 58°11' E 010°29'2 2.1
2016-May-22 15:34N 58°11' E 010°25'2 2.1
2016-May-22 14:34N 58°12' E 010°21'2 2.1
2016-May-22 13:34N 58°11' E 010°17'2 2.1
2016-May-22 12:26N 58°11' E 010°12'2 2.3
2016-May-22 11:24N 58°10' E 010°08'1 1.2
2016-May-22 10:33N 58°09' E 010°07'1 1.2
2016-May-22 09:33N 58°08' E 010°09'2 1.8
2016-May-22 08:30N 58°09' E 010°12'2 1.8
2016-May-22 07:29N 58°09' E 010°16'2 1.8
2016-May-22 06:34N 58°09' E 010°19'2 1.8
2016-May-22 05:34N 58°09' E 010°22'2 1.8
2016-May-22 04:34N 58°09' E 010°26'2 1.9
2016-May-22 03:33N 58°08' E 010°29'2 1.9
2016-May-22 02:34N 58°07' E 010°32'2 1.9
2016-May-22 01:33N 58°06' E 010°35'2 1.8
2016-May-22 00:34N 58°04' E 010°37'2 1.9
2016-May-21 23:34N 58°03' E 010°39'2 2.0
2016-May-21 22:34N 58°02' E 010°42'5 4.6
2016-May-21 21:34N 58°02' E 010°50'0 0.3
2016-May-21 20:34N 58°02' E 010°51'2 2.2
2016-May-21 19:34N 58°01' E 010°48'2 2.0
2016-May-21 18:34N 58°02' E 010°44'2 1.9
2016-May-21 17:34N 58°04' E 010°42'2 1.9
2016-May-21 16:34N 58°05' E 010°41'2 2.0
2016-May-21 15:34N 58°07' E 010°39'2 2.0
2016-May-21 14:33N 58°08' E 010°35'2 2.1
2016-May-21 13:34N 58°09' E 010°32'2 2.2
2016-May-21 12:33N 58°10' E 010°28'2 2.2
2016-May-21 11:32N 58°10' E 010°24'3 3.0
2016-May-21 10:34N 58°11' E 010°19'9 9.1
2016-May-21 09:33N 58°20' E 010°14'18 8.9
2016-May-21 07:34N 58°37' E 010°07'9 8.9
2016-May-21 06:33N 58°46' E 010°04'1 1.1
2016-May-21 05:34N 58°47' E 010°04'2 1.9
2016-May-21 04:34N 58°49' E 010°05'2 2.0
2016-May-21 03:33N 58°49' E 010°09'2 2.2
2016-May-21 02:34N 58°47' E 010°12'2 2.2
2016-May-21 01:33N 58°46' E 010°14'2 2.1
2016-May-21 00:34N 58°44' E 010°16'2 2.0
2016-May-20 23:34N 58°42' E 010°18'2 2.0
2016-May-20 22:33N 58°40' E 010°20'2 2.0
2016-May-20 21:34N 58°38' E 010°22'2 2.0
2016-May-20 20:34N 58°37' E 010°24'2 2.0
2016-May-20 19:34N 58°35' E 010°26'2 2.2
2016-May-20 18:34N 58°33' E 010°28'1 1.3
2016-May-20 17:33N 58°32' E 010°29'6 6.3
2016-May-20 16:33N 58°38' E 010°28'1 1.5
2016-May-20 15:34N 58°37' E 010°28'2 2.1
2016-May-20 14:34N 58°35' E 010°30'2 2.1
2016-May-20 13:34N 58°34' E 010°33'2 2.1
2016-May-20 12:34N 58°32' E 010°36'2 2.1
2016-May-20 11:34N 58°30' E 010°38'2 2.0
2016-May-20 10:34N 58°29' E 010°40'2 2.0
2016-May-20 09:34N 58°27' E 010°41'2 2.1
2016-May-20 08:34N 58°25' E 010°42'2 2.1
2016-May-20 07:34N 58°23' E 010°42'2 2.2
2016-May-20 06:33N 58°20' E 010°43'5 5.1
2016-May-20 05:34N 58°15' E 010°42'9 8.8
2016-May-20 04:34N 58°07' E 010°37'1 1.4
2016-May-20 03:33N 58°07' E 010°35'2 2.3
2016-May-20 02:34N 58°09' E 010°31'2 2.3
2016-May-20 01:34N 58°10' E 010°27'2 2.3
2016-May-20 00:33N 58°10' E 010°23'2 2.3
2016-May-19 23:34N 58°10' E 010°18'3 2.3
2016-May-19 22:23N 58°09' E 010°13'2 2.3
2016-May-19 21:26N 58°09' E 010°09'7 2.3
2016-May-19 18:23N 58°02' E 010°10'7 9.0
2016-May-19 17:34N 57°57' E 010°21'9 9.0
2016-May-19 16:33N 57°51' E 010°33'8 7.5
2016-May-19 15:31N 57°44' E 010°40'2 2.4
2016-May-19 14:33N 57°43' E 010°36'0 0.0
2016-May-19 13:28N 57°43' E 010°36'0 0.0
2016-May-19 06:33N 57°43' E 010°36'8 7.7
2016-May-19 05:32N 57°49' E 010°46'9 9.2
2016-May-19 04:34N 57°57' E 010°53'9 8.7
2016-May-19 03:34N 58°04' E 010°60'9 8.6
2016-May-19 02:34N 58°12' E 011°07'9 8.7
2016-May-19 01:34N 58°20' E 011°14'1 1.0
2016-May-19 00:34N 58°21' E 011°14'4 3.6
2016-May-18 23:34N 58°23' E 011°07'9 9.0
2016-May-18 22:34N 58°28' E 010°54'9 8.6
2016-May-18 21:34N 58°34' E 010°42'8 8.4
2016-May-18 20:34N 58°40' E 010°31'4 4.2
2016-May-18 19:33N 58°43' E 010°25'1 1.0
2016-May-18 18:34N 58°44' E 010°25'1 1.3
2016-May-18 17:34N 58°45' E 010°24'1 1.3
2016-May-18 16:34N 58°46' E 010°22'1 1.3
2016-May-18 15:33N 58°47' E 010°20'1 1.4
2016-May-18 14:33N 58°47' E 010°18'2 1.6
2016-May-18 13:33N 58°46' E 010°17'2 2.0
2016-May-18 12:33N 58°44' E 010°19'2 2.1
2016-May-18 11:34N 58°42' E 010°21'2 2.1
2016-May-18 10:34N 58°41' E 010°23'2 2.0
2016-May-18 09:33N 58°39' E 010°25'2 2.0
2016-May-18 08:34N 58°37' E 010°26'2 2.1
2016-May-18 07:34N 58°35' E 010°28'2 2.1
2016-May-18 06:34N 58°33' E 010°29'2 2.5
2016-May-18 05:33N 58°31' E 010°32'7 7.3
2016-May-18 04:32N 58°37' E 010°25'8 8.3
2016-May-18 03:34N 58°45' E 010°19'6 6.1
2016-May-18 02:34N 58°51' E 010°15'2 1.5
2016-May-18 01:34N 58°50' E 010°17'2 2.0
2016-May-18 00:34N 58°48' E 010°20'2 2.0
2016-May-17 23:34N 58°47' E 010°22'2 2.0
2016-May-17 22:34N 58°45' E 010°25'2 2.0
2016-May-17 21:34N 58°43' E 010°26'2 2.1
2016-May-17 20:33N 58°41' E 010°28'2 2.0
2016-May-17 19:34N 58°40' E 010°29'2 2.0
2016-May-17 18:34N 58°38' E 010°30'2 1.9
2016-May-17 17:33N 58°36' E 010°31'2 1.9
2016-May-17 16:34N 58°34' E 010°33'2 2.0
2016-May-17 15:34N 58°32' E 010°35'2 2.0
2016-May-17 14:34N 58°31' E 010°38'2 2.0
2016-May-17 13:33N 58°29' E 010°39'4 4.2
2016-May-17 12:34N 58°32' E 010°34'1 1.2
2016-May-17 11:34N 58°33' E 010°33'2 1.6
2016-May-17 10:33N 58°35' E 010°31'2 1.6
2016-May-17 09:34N 58°36' E 010°30'2 1.6
2016-May-17 08:34N 58°38' E 010°30'2 1.6
2016-May-17 07:34N 58°39' E 010°29'2 1.6
2016-May-17 06:34N 58°41' E 010°28'2 1.6
2016-May-17 05:34N 58°42' E 010°27'2 1.6
2016-May-17 04:33N 58°44' E 010°26'2 1.6
2016-May-17 03:34N 58°45' E 010°24'2 1.7
2016-May-17 02:34N 58°46' E 010°22'2 1.6
2016-May-17 01:34N 58°48' E 010°20'2 1.6
2016-May-17 00:34N 58°49' E 010°18'2 1.6
2016-May-16 23:34N 58°50' E 010°16'  

Dump ship's entire track history